NOZ1972 VTBD-VRMM
Flight info
| Callsign | NOZ1972 |
|---|---|
| Flight time | N/A |
| Altitude | 34000 |
| Route | PASTO3C PASTO L301 DWI P762 KAT G465 DOPDO DOPDO2A |
| Aircraft | B738/M-SDE2E3FGHIRWXY/LB1 |
Departure
| Time | N/A |
|---|---|
| Airport | Don Mueang International Airport (VTBD) |
Arrival
| Time | 2026-05-05 21:42 |
|---|---|
| Airport | Velana International Airport (VRMM) |
| Time | Latitude | Longitude | Altitude | Speed | Heading |
|---|---|---|---|---|---|
| 2026-05-05 20:35 | 7.16470 | 79.87915 | 33830 ft | 494 kts | 249° |
| 2026-05-05 20:36 | 7.13837 | 79.81581 | 33833 ft | 493 kts | 244° |
| 2026-05-05 20:36 | 7.11361 | 79.76362 | 33821 ft | 494 kts | 243° |
| 2026-05-05 20:37 | 7.08391 | 79.70120 | 33829 ft | 494 kts | 244° |
| 2026-05-05 20:37 | 7.05478 | 79.63865 | 33828 ft | 493 kts | 244° |
| 2026-05-05 20:38 | 7.02592 | 79.57600 | 33830 ft | 493 kts | 244° |
| 2026-05-05 20:38 | 6.99710 | 79.51341 | 33811 ft | 493 kts | 244° |
| 2026-05-05 20:39 | 6.96843 | 79.45122 | 33825 ft | 492 kts | 244° |
| 2026-05-05 20:39 | 6.93954 | 79.38864 | 33823 ft | 492 kts | 244° |
| 2026-05-05 20:40 | 6.91073 | 79.32624 | 33810 ft | 492 kts | 244° |
| 2026-05-05 20:40 | 6.88191 | 79.26385 | 33809 ft | 492 kts | 244° |
| 2026-05-05 20:41 | 6.85307 | 79.20143 | 33822 ft | 491 kts | 244° |
| 2026-05-05 20:41 | 6.82427 | 79.13912 | 33815 ft | 491 kts | 244° |
| 2026-05-05 20:42 | 6.79545 | 79.07679 | 33801 ft | 491 kts | 244° |
| 2026-05-05 20:42 | 6.76612 | 79.01469 | 33815 ft | 491 kts | 242° |
| 2026-05-05 20:43 | 6.73510 | 78.95350 | 33821 ft | 491 kts | 242° |
| 2026-05-05 20:43 | 6.70383 | 78.89237 | 33799 ft | 492 kts | 241° |
| 2026-05-05 20:44 | 6.67270 | 78.83096 | 33823 ft | 494 kts | 241° |
| 2026-05-05 20:44 | 6.64158 | 78.76921 | 33822 ft | 495 kts | 241° |
| 2026-05-05 20:45 | 6.59478 | 78.67626 | 33820 ft | 497 kts | 241° |
| 2026-05-05 20:45 | 6.56356 | 78.61430 | 33804 ft | 497 kts | 241° |
| 2026-05-05 20:46 | 6.53228 | 78.55227 | 33813 ft | 497 kts | 241° |
| 2026-05-05 20:46 | 6.50121 | 78.49068 | 33811 ft | 497 kts | 241° |
| 2026-05-05 20:47 | 6.46992 | 78.42867 | 33818 ft | 497 kts | 241° |
| 2026-05-05 20:47 | 6.43862 | 78.36667 | 33815 ft | 497 kts | 241° |
| 2026-05-05 20:48 | 6.40733 | 78.30471 | 33807 ft | 497 kts | 241° |
| 2026-05-05 20:48 | 6.37603 | 78.24274 | 33818 ft | 497 kts | 241° |
| 2026-05-05 20:49 | 6.34493 | 78.18120 | 33806 ft | 497 kts | 241° |
| 2026-05-05 20:49 | 6.31361 | 78.11925 | 33804 ft | 497 kts | 241° |
| 2026-05-05 20:50 | 6.28230 | 78.05733 | 33810 ft | 497 kts | 241° |
| 2026-05-05 20:50 | 6.25096 | 77.99539 | 33806 ft | 497 kts | 241° |
| 2026-05-05 20:51 | 6.21959 | 77.93340 | 33807 ft | 497 kts | 241° |
| 2026-05-05 20:51 | 6.18822 | 77.87143 | 33809 ft | 498 kts | 241° |
| 2026-05-05 20:52 | 6.15676 | 77.80930 | 33806 ft | 498 kts | 241° |
| 2026-05-05 20:52 | 6.12546 | 77.74752 | 33806 ft | 499 kts | 241° |
| 2026-05-05 20:53 | 6.09394 | 77.68532 | 33806 ft | 499 kts | 241° |
| 2026-05-05 20:53 | 6.06248 | 77.62325 | 33810 ft | 499 kts | 241° |
| 2026-05-05 20:54 | 6.03098 | 77.56112 | 33799 ft | 500 kts | 242° |
| 2026-05-05 20:54 | 5.99936 | 77.49878 | 33814 ft | 500 kts | 242° |
| 2026-05-05 20:55 | 5.96958 | 77.43554 | 33812 ft | 501 kts | 245° |
| 2026-05-05 20:55 | 5.94139 | 77.37142 | 33809 ft | 502 kts | 245° |
| 2026-05-05 20:56 | 5.91306 | 77.30732 | 33812 ft | 502 kts | 245° |
| 2026-05-05 20:56 | 5.88448 | 77.24362 | 33811 ft | 502 kts | 244° |
| 2026-05-05 20:57 | 5.85563 | 77.17972 | 33810 ft | 502 kts | 245° |
| 2026-05-05 20:57 | 5.82676 | 77.11579 | 33810 ft | 502 kts | 245° |
| 2026-05-05 20:58 | 5.79788 | 77.05185 | 33807 ft | 502 kts | 245° |
| 2026-05-05 20:58 | 5.76904 | 76.98796 | 33809 ft | 502 kts | 245° |
| 2026-05-05 20:59 | 5.74036 | 76.92446 | 33810 ft | 502 kts | 245° |
| 2026-05-05 20:59 | 5.71150 | 76.86060 | 33812 ft | 502 kts | 245° |
| 2026-05-05 21:00 | 5.68262 | 76.79669 | 33813 ft | 502 kts | 244° |
| 2026-05-05 21:00 | 5.65367 | 76.73268 | 33816 ft | 502 kts | 244° |
| 2026-05-05 21:01 | 5.62481 | 76.66885 | 33812 ft | 502 kts | 245° |
| 2026-05-05 21:01 | 5.59593 | 76.60503 | 33811 ft | 502 kts | 245° |
| 2026-05-05 21:02 | 5.56704 | 76.54119 | 33810 ft | 502 kts | 245° |
| 2026-05-05 21:02 | 5.53817 | 76.47742 | 33806 ft | 503 kts | 244° |
| 2026-05-05 21:03 | 5.50920 | 76.41345 | 33815 ft | 504 kts | 244° |
| 2026-05-05 21:03 | 5.48013 | 76.34930 | 33813 ft | 505 kts | 244° |
| 2026-05-05 21:04 | 5.45125 | 76.28556 | 33811 ft | 505 kts | 244° |
| 2026-05-05 21:04 | 5.42214 | 76.22135 | 33812 ft | 505 kts | 244° |
| 2026-05-05 21:05 | 5.39299 | 76.15706 | 33812 ft | 506 kts | 244° |
| 2026-05-05 21:05 | 5.36385 | 76.09280 | 33813 ft | 506 kts | 244° |
| 2026-05-05 21:06 | 5.33467 | 76.02850 | 33811 ft | 506 kts | 244° |
| 2026-05-05 21:06 | 5.30549 | 75.96431 | 33815 ft | 505 kts | 244° |
| 2026-05-05 21:07 | 5.27649 | 75.90058 | 33810 ft | 505 kts | 244° |
| 2026-05-05 21:07 | 5.24727 | 75.83632 | 33811 ft | 505 kts | 244° |
| 2026-05-05 21:08 | 5.21810 | 75.77219 | 33815 ft | 505 kts | 244° |
| 2026-05-05 21:08 | 5.18897 | 75.70817 | 33812 ft | 504 kts | 244° |
| 2026-05-05 21:09 | 5.15990 | 75.64432 | 33814 ft | 503 kts | 244° |
| 2026-05-05 21:09 | 5.13082 | 75.58045 | 33815 ft | 503 kts | 244° |
| 2026-05-05 21:10 | 5.10170 | 75.51651 | 33811 ft | 503 kts | 244° |
| 2026-05-05 21:10 | 5.07301 | 75.45351 | 33787 ft | 481 kts | 244° |
| 2026-05-05 21:11 | 5.05937 | 75.42353 | 33792 ft | 465 kts | 244° |
| 2026-05-05 21:11 | 5.04605 | 75.39430 | 33802 ft | 458 kts | 244° |
| 2026-05-05 21:11 | 5.01998 | 75.33713 | 33406 ft | 450 kts | 244° |
| 2026-05-05 21:12 | 5.00702 | 75.30871 | 33095 ft | 444 kts | 244° |
| 2026-05-05 21:12 | 4.99425 | 75.28073 | 32785 ft | 438 kts | 244° |
| 2026-05-05 21:12 | 4.98158 | 75.25294 | 32400 ft | 435 kts | 244° |
| 2026-05-05 21:12 | 4.96906 | 75.22552 | 32032 ft | 431 kts | 245° |
| 2026-05-05 21:13 | 4.95663 | 75.19826 | 31618 ft | 429 kts | 245° |
| 2026-05-05 21:13 | 4.94430 | 75.17125 | 31244 ft | 425 kts | 245° |
| 2026-05-05 21:13 | 4.93202 | 75.14433 | 30924 ft | 421 kts | 245° |
| 2026-05-05 21:13 | 4.91989 | 75.11774 | 30613 ft | 417 kts | 245° |
| 2026-05-05 21:14 | 4.90780 | 75.09127 | 30198 ft | 416 kts | 245° |
| 2026-05-05 21:14 | 4.89583 | 75.06504 | 29828 ft | 413 kts | 245° |
| 2026-05-05 21:14 | 4.88389 | 75.03889 | 29398 ft | 410 kts | 245° |
| 2026-05-05 21:14 | 4.87207 | 75.01299 | 28970 ft | 406 kts | 244° |
| 2026-05-05 21:15 | 4.86041 | 74.98745 | 28487 ft | 402 kts | 245° |
| 2026-05-05 21:15 | 4.84892 | 74.96229 | 28086 ft | 396 kts | 245° |
| 2026-05-05 21:15 | 4.83776 | 74.93784 | 27814 ft | 387 kts | 245° |
| 2026-05-05 21:15 | 4.82665 | 74.91351 | 27515 ft | 379 kts | 245° |
| 2026-05-05 21:16 | 4.81568 | 74.88950 | 27075 ft | 375 kts | 245° |
| 2026-05-05 21:16 | 4.80487 | 74.86585 | 26643 ft | 373 kts | 245° |
| 2026-05-05 21:16 | 4.79424 | 74.84257 | 26320 ft | 362 kts | 245° |
| 2026-05-05 21:16 | 4.78393 | 74.82002 | 26071 ft | 349 kts | 245° |
| 2026-05-05 21:17 | 4.77389 | 74.79806 | 25781 ft | 342 kts | 245° |
| 2026-05-05 21:17 | 4.76362 | 74.77559 | 25384 ft | 363 kts | 245° |
| 2026-05-05 21:17 | 4.75314 | 74.75265 | 25068 ft | 359 kts | 245° |
| 2026-05-05 21:17 | 4.74278 | 74.73000 | 24663 ft | 357 kts | 245° |
| 2026-05-05 21:18 | 4.73256 | 74.70765 | 24385 ft | 351 kts | 245° |
| 2026-05-05 21:18 | 4.72261 | 74.68588 | 24143 ft | 345 kts | 245° |
| 2026-05-05 21:18 | 4.71260 | 74.66400 | 23807 ft | 341 kts | 245° |
| 2026-05-05 21:18 | 4.70269 | 74.64234 | 23382 ft | 341 kts | 245° |
| 2026-05-05 21:19 | 4.69290 | 74.62091 | 22834 ft | 343 kts | 245° |
| 2026-05-05 21:19 | 4.68280 | 74.59883 | 22446 ft | 343 kts | 245° |
| 2026-05-05 21:19 | 4.67297 | 74.57736 | 22270 ft | 337 kts | 245° |
| 2026-05-05 21:19 | 4.66331 | 74.55624 | 22151 ft | 330 kts | 245° |
| 2026-05-05 21:20 | 4.65381 | 74.53548 | 22014 ft | 326 kts | 245° |
| 2026-05-05 21:20 | 4.64431 | 74.51472 | 21883 ft | 331 kts | 245° |
| 2026-05-05 21:20 | 4.63468 | 74.49367 | 21593 ft | 333 kts | 245° |
| 2026-05-05 21:20 | 4.62504 | 74.47262 | 21310 ft | 329 kts | 245° |
| 2026-05-05 21:21 | 4.61553 | 74.45182 | 21014 ft | 326 kts | 245° |
| 2026-05-05 21:21 | 4.60607 | 74.43116 | 20666 ft | 325 kts | 245° |
| 2026-05-05 21:21 | 4.59672 | 74.41073 | 20413 ft | 321 kts | 245° |
| 2026-05-05 21:21 | 4.58741 | 74.39039 | 20022 ft | 322 kts | 245° |
| 2026-05-05 21:22 | 4.58123 | 74.37690 | 19798 ft | 321 kts | 245° |
| 2026-05-05 21:22 | 4.56896 | 74.35009 | 19418 ft | 318 kts | 245° |
| 2026-05-05 21:22 | 4.56274 | 74.33651 | 19213 ft | 316 kts | 245° |
| 2026-05-05 21:22 | 4.55061 | 74.31002 | 18822 ft | 314 kts | 245° |
| 2026-05-05 21:23 | 4.54135 | 74.29025 | 18522 ft | 312 kts | 242° |
| 2026-05-05 21:23 | 4.53379 | 74.27806 | 18389 ft | 309 kts | 234° |
| 2026-05-05 21:23 | 4.52073 | 74.26110 | 18125 ft | 306 kts | 232° |
| 2026-05-05 21:23 | 4.50759 | 74.24436 | 17805 ft | 304 kts | 232° |
| 2026-05-05 21:24 | 4.49454 | 74.22769 | 17484 ft | 303 kts | 232° |
| 2026-05-05 21:24 | 4.48164 | 74.21113 | 17174 ft | 301 kts | 233° |
| 2026-05-05 21:24 | 4.46885 | 74.19463 | 16867 ft | 299 kts | 233° |
| 2026-05-05 21:24 | 4.45614 | 74.17817 | 16560 ft | 297 kts | 233° |
| 2026-05-05 21:25 | 4.44369 | 74.16201 | 16263 ft | 295 kts | 233° |
| 2026-05-05 21:25 | 4.43117 | 74.14574 | 15962 ft | 294 kts | 233° |
| 2026-05-05 21:25 | 4.41872 | 74.12953 | 15660 ft | 293 kts | 233° |
| 2026-05-05 21:25 | 4.40633 | 74.11340 | 15360 ft | 291 kts | 233° |
| 2026-05-05 21:26 | 4.39400 | 74.09734 | 15067 ft | 290 kts | 234° |
| 2026-05-05 21:26 | 4.38172 | 74.08134 | 14775 ft | 289 kts | 234° |
| 2026-05-05 21:26 | 4.36950 | 74.06541 | 14479 ft | 288 kts | 234° |
| 2026-05-05 21:26 | 4.35730 | 74.04952 | 14184 ft | 287 kts | 234° |
| 2026-05-05 21:27 | 4.34516 | 74.03368 | 13889 ft | 286 kts | 234° |
| 2026-05-05 21:27 | 4.33303 | 74.01788 | 13584 ft | 286 kts | 234° |
| 2026-05-05 21:27 | 4.32091 | 74.00207 | 13251 ft | 285 kts | 234° |
| 2026-05-05 21:27 | 4.30897 | 73.98651 | 12941 ft | 285 kts | 234° |
| 2026-05-05 21:28 | 4.29692 | 73.97080 | 12630 ft | 283 kts | 234° |
| 2026-05-05 21:28 | 4.28492 | 73.95516 | 12331 ft | 282 kts | 234° |
| 2026-05-05 21:28 | 4.27297 | 73.93960 | 12069 ft | 280 kts | 234° |
| 2026-05-05 21:28 | 4.26127 | 73.92436 | 11879 ft | 275 kts | 234° |
| 2026-05-05 21:29 | 4.24965 | 73.90921 | 11615 ft | 273 kts | 234° |
| 2026-05-05 21:29 | 4.23812 | 73.89419 | 11344 ft | 272 kts | 234° |
| 2026-05-05 21:29 | 4.22661 | 73.87920 | 11065 ft | 271 kts | 234° |
| 2026-05-05 21:29 | 4.21515 | 73.86426 | 10785 ft | 270 kts | 234° |
| 2026-05-05 21:30 | 4.20365 | 73.84927 | 10493 ft | 270 kts | 234° |
| 2026-05-05 21:30 | 4.19236 | 73.83457 | 10223 ft | 270 kts | 234° |
| 2026-05-05 21:30 | 4.18106 | 73.81986 | 10078 ft | 264 kts | 234° |
| 2026-05-05 21:30 | 4.16986 | 73.80526 | 9798 ft | 264 kts | 234° |
| 2026-05-05 21:31 | 4.15867 | 73.79069 | 9535 ft | 264 kts | 234° |
| 2026-05-05 21:31 | 4.14752 | 73.77616 | 9242 ft | 263 kts | 234° |
| 2026-05-05 21:31 | 4.13638 | 73.76166 | 8961 ft | 262 kts | 234° |
| 2026-05-05 21:31 | 4.12525 | 73.74716 | 8690 ft | 261 kts | 234° |
| 2026-05-05 21:32 | 4.11418 | 73.73275 | 8414 ft | 261 kts | 234° |
| 2026-05-05 21:32 | 4.10312 | 73.71834 | 8124 ft | 260 kts | 234° |
| 2026-05-05 21:32 | 4.09208 | 73.70397 | 7854 ft | 260 kts | 234° |
| 2026-05-05 21:32 | 4.08105 | 73.68960 | 7578 ft | 260 kts | 234° |
| 2026-05-05 21:33 | 4.07004 | 73.67526 | 7306 ft | 260 kts | 234° |
| 2026-05-05 21:33 | 4.05900 | 73.66090 | 7028 ft | 260 kts | 234° |
| 2026-05-05 21:33 | 4.04795 | 73.64651 | 6741 ft | 261 kts | 234° |
| 2026-05-05 21:33 | 4.03686 | 73.63207 | 6468 ft | 261 kts | 234° |
| 2026-05-05 21:34 | 4.02592 | 73.61782 | 6190 ft | 261 kts | 234° |
| 2026-05-05 21:34 | 4.01483 | 73.60339 | 5894 ft | 261 kts | 234° |
| 2026-05-05 21:34 | 4.00376 | 73.58897 | 5634 ft | 260 kts | 234° |
| 2026-05-05 21:34 | 3.99274 | 73.57462 | 5371 ft | 259 kts | 234° |
| 2026-05-05 21:35 | 3.98176 | 73.56033 | 5102 ft | 258 kts | 234° |
| 2026-05-05 21:35 | 3.97083 | 73.54611 | 4839 ft | 257 kts | 234° |
| 2026-05-05 21:35 | 3.95990 | 73.53189 | 4576 ft | 257 kts | 234° |
| 2026-05-05 21:35 | 3.94973 | 73.51724 | 4305 ft | 254 kts | 248° |
| 2026-05-05 21:36 | 3.94755 | 73.50064 | 4254 ft | 235 kts | 282° |
| 2026-05-05 21:36 | 3.95361 | 73.48616 | 4149 ft | 221 kts | 305° |
| 2026-05-05 21:36 | 3.96425 | 73.47584 | 4043 ft | 209 kts | 327° |
| 2026-05-05 21:36 | 3.97750 | 73.47081 | 3908 ft | 201 kts | 350° |
| 2026-05-05 21:37 | 3.99115 | 73.47135 | 3843 ft | 195 kts | 9° |
| 2026-05-05 21:37 | 4.00382 | 73.47612 | 3617 ft | 195 kts | 28° |
| 2026-05-05 21:37 | 4.01393 | 73.48459 | 3437 ft | 191 kts | 43° |
| 2026-05-05 21:37 | 4.02308 | 73.49423 | 3219 ft | 190 kts | 44° |
| 2026-05-05 21:38 | 4.03204 | 73.50385 | 3014 ft | 189 kts | 44° |
| 2026-05-05 21:38 | 4.04100 | 73.51346 | 2808 ft | 188 kts | 44° |
| 2026-05-05 21:38 | 4.04997 | 73.52306 | 2614 ft | 189 kts | 44° |
| 2026-05-05 21:38 | 4.05966 | 73.53165 | 2374 ft | 185 kts | 21° |
| 2026-05-05 21:39 | 4.07155 | 73.53245 | 2244 ft | 168 kts | 347° |
| 2026-05-05 21:39 | 4.08352 | 73.53139 | 1992 ft | 173 kts | 355° |
| 2026-05-05 21:39 | 4.09538 | 73.53115 | 1717 ft | 167 kts | 355° |
| 2026-05-05 21:39 | 4.10678 | 73.53109 | 1492 ft | 162 kts | 357° |
| 2026-05-05 21:40 | 4.11766 | 73.53109 | 1305 ft | 156 kts | 356° |
| 2026-05-05 21:40 | 4.12849 | 73.53107 | 1121 ft | 159 kts | 356° |
| 2026-05-05 21:40 | 4.13948 | 73.53106 | 911 ft | 157 kts | 356° |
| 2026-05-05 21:40 | 4.15031 | 73.53105 | 713 ft | 154 kts | 356° |
| 2026-05-05 21:41 | 4.16115 | 73.53103 | 532 ft | 156 kts | 358° |
| 2026-05-05 21:41 | 4.17207 | 73.53104 | 315 ft | 157 kts | 358° |
| 2026-05-05 21:41 | 4.18305 | 73.53102 | 66 ft | 156 kts | 359° |
| 2026-05-05 21:41 | 4.19310 | 73.53099 | 11 ft | 111 kts | 359° |
| 2026-05-05 21:42 | 4.19735 | 73.53094 | 7 ft | 39 kts | 0° |
| 2026-05-05 21:42 | 4.19996 | 73.53094 | 8 ft | 36 kts | 359° |
| 2026-05-05 21:42 | 4.20239 | 73.53094 | 8 ft | 33 kts | 360° |
| 2026-05-05 21:42 | 4.20343 | 73.53089 | 12 ft | 9 kts | 334° |
| 2026-05-05 21:43 | 4.20368 | 73.53026 | 10 ft | 13 kts | 271° |
| 2026-05-05 21:43 | 4.20366 | 73.52932 | 10 ft | 14 kts | 253° |
| 2026-05-05 21:43 | 4.20285 | 73.52898 | 10 ft | 15 kts | 180° |
| 2026-05-05 21:43 | 4.20157 | 73.52899 | 10 ft | 21 kts | 179° |
| 2026-05-05 21:44 | 4.19994 | 73.52902 | 9 ft | 26 kts | 179° |
| 2026-05-05 21:44 | 4.19801 | 73.52903 | 9 ft | 28 kts | 180° |
| 2026-05-05 21:44 | 4.19624 | 73.52907 | 10 ft | 25 kts | 178° |
| 2026-05-05 21:44 | 4.19456 | 73.52910 | 10 ft | 24 kts | 179° |
| 2026-05-05 21:45 | 4.19272 | 73.52914 | 10 ft | 27 kts | 179° |
| 2026-05-05 21:45 | 4.19099 | 73.52917 | 10 ft | 15 kts | 179° |
| 2026-05-05 21:45 | 4.19040 | 73.52878 | 10 ft | 11 kts | 261° |
| 2026-05-05 21:45 | 4.19038 | 73.52807 | 10 ft | 8 kts | 271° |
| 2026-05-05 21:46 | 4.19038 | 73.52804 | 10 ft | 0 kts | 271° |